Time;durP1;ratioP1;P1;durP2;ratioP2;P2;SDS_P1;SDS_P2;PMS_P1;PMS_P2;Temp;Humidity;BMP_temperature;BMP_pressure;BME280_temperature;BME280_humidity;BME280_pressure;Samples;Min_cycle;Max_cycle;Signal;HPM_P1;HPM_P2
2022/04/11 00:01:22;;;;;;;6.43;4.97;;;;;;;4.28;100.00;95593.72;5131736;27;20189;-59
2022/04/11 00:03:51;;;;;;;6.77;5.23;;;;;;;4.21;100.00;95593.59;5131526;27;20186;-60
2022/04/11 00:06:16;;;;;;;5.67;4.83;;;;;;;4.22;100.00;95592.47;5131734;27;20189;-59
2022/04/11 00:08:41;;;;;;;6.97;5.03;;;;;;;3.96;100.00;95592.34;5131718;27;20185;-60
2022/04/11 00:11:07;;;;;;;6.70;5.40;;;;;;;3.98;100.00;95587.38;5131302;27;20619;-60
2022/04/11 00:13:32;;;;;;;5.87;4.57;;;;;;;4.02;100.00;95585.50;5131228;27;20180;-60
2022/04/11 00:15:57;;;;;;;6.07;4.97;;;;;;;4.09;100.00;95569.44;5131567;27;20276;-60
2022/04/11 00:18:23;;;;;;;5.83;4.90;;;;;;;4.05;100.00;95571.28;5131604;27;20198;-52
2022/04/11 00:20:49;;;;;;;5.73;4.87;;;;;;;4.23;100.00;95567.00;5131810;27;20179;-60
2022/04/11 00:23:14;;;;;;;6.23;4.90;;;;;;;4.12;100.00;95574.94;5122513;28;20592;-59
2022/04/11 00:25:40;;;;;;;6.07;4.87;;;;;;;4.14;100.00;95569.13;5117465;28;20287;-59
2022/04/11 00:28:05;;;;;;;5.67;4.90;;;;;;;4.12;100.00;95569.53;5118029;28;20201;-59
2022/04/11 00:30:31;;;;;;;5.77;4.93;;;;;;;4.28;100.00;95566.69;5117390;28;20176;-59
2022/04/11 00:32:56;;;;;;;8.53;4.93;;;;;;;4.23;100.00;95575.13;5117596;28;20176;-60
2022/04/11 00:35:22;;;;;;;7.20;5.43;;;;;;;4.17;100.00;95577.31;5117343;28;20211;-59
2022/04/11 00:37:47;;;;;;;7.53;5.13;;;;;;;4.14;100.00;95571.84;5117445;28;20234;-57
2022/04/11 00:40:13;;;;;;;5.40;4.77;;;;;;;4.26;100.00;95563.59;5117375;28;20175;-60
2022/04/11 00:42:39;;;;;;;4.90;4.27;;;;;;;4.09;100.00;95572.13;5117478;28;20188;-61
2022/04/11 00:45:05;;;;;;;6.33;4.93;;;;;;;4.17;100.00;95571.13;5117132;28;20203;-61
2022/04/11 00:47:31;;;;;;;6.80;4.33;;;;;;;4.18;100.00;95572.72;5117451;28;20177;-60
2022/04/11 00:50:02;;;;;;;6.33;4.63;;;;;;;4.19;100.00;95576.97;5117598;28;20188;-60
2022/04/11 00:52:31;;;;;;;7.17;5.00;;;;;;;3.98;100.00;95574.66;5117373;28;20197;-60
2022/04/11 00:54:58;;;;;;;5.77;4.93;;;;;;;4.04;100.00;95573.19;5117357;28;20192;-61
2022/04/11 00:57:24;;;;;;;5.73;4.50;;;;;;;4.11;100.00;95572.56;5116934;28;20195;-53
2022/04/11 00:59:50;;;;;;;6.90;5.10;;;;;;;4.17;100.00;95573.84;5117029;28;20283;-50
2022/04/11 01:02:15;;;;;;;5.30;4.70;;;;;;;4.08;100.00;95579.44;5116889;28;20186;-51
2022/04/11 01:04:41;;;;;;;6.57;5.07;;;;;;;4.10;100.00;95577.19;5117295;28;20227;-50
2022/04/11 01:07:08;;;;;;;5.53;4.57;;;;;;;4.33;100.00;95577.25;5117092;28;20289;-51
2022/04/11 01:09:34;;;;;;;6.40;5.30;;;;;;;4.52;100.00;95575.25;5117003;28;20567;-49
2022/04/11 01:12:01;;;;;;;5.83;4.60;;;;;;;4.59;100.00;95577.31;5116706;28;20560;-51
2022/04/11 01:14:26;;;;;;;5.97;4.73;;;;;;;4.65;100.00;95573.16;5117260;28;20201;-59
2022/04/11 01:16:52;;;;;;;7.40;4.83;;;;;;;4.56;100.00;95573.41;5116826;28;20280;-57
2022/04/11 01:19:19;;;;;;;6.57;4.47;;;;;;;4.58;100.00;95563.00;5117092;28;20179;-58
2022/04/11 01:21:48;;;;;;;7.10;4.53;;;;;;;4.54;100.00;95578.38;5116797;28;20203;-57
2022/04/11 01:24:18;;;;;;;9.93;5.33;;;;;;;4.52;100.00;95571.78;5116798;27;20189;-57
2022/04/11 01:26:45;;;;;;;6.57;4.00;;;;;;;4.26;100.00;95582.50;5116862;28;20199;-58
2022/04/11 01:29:12;;;;;;;5.07;4.00;;;;;;;4.27;100.00;95581.38;5116855;28;20202;-57
2022/04/11 01:31:37;;;;;;;5.07;4.33;;;;;;;4.16;100.00;95580.38;5116434;28;20597;-62
2022/04/11 01:34:03;;;;;;;6.73;4.17;;;;;;;4.16;100.00;95577.69;5115627;28;20235;-59
2022/04/11 01:36:28;;;;;;;4.37;3.97;;;;;;;4.27;100.00;95579.44;5116276;28;20550;-55
2022/04/11 01:38:54;;;;;;;5.00;3.83;;;;;;;4.20;100.00;95570.41;5116281;28;20192;-52
2022/04/11 01:41:22;;;;;;;5.70;4.13;;;;;;;4.17;100.00;95576.53;5116285;28;20188;-55
2022/04/11 01:43:47;;;;;;;3.53;3.23;;;;;;;4.02;100.00;95567.38;5116611;28;20211;-55
2022/04/11 01:46:13;;;;;;;5.83;4.00;;;;;;;4.21;100.00;95570.06;5116389;28;20272;-56
2022/04/11 01:48:38;;;;;;;4.47;3.50;;;;;;;4.13;100.00;95576.47;5116657;28;20209;-54
2022/04/11 01:51:04;;;;;;;5.93;4.20;;;;;;;4.13;100.00;95581.09;5116591;28;20254;-60
2022/04/11 01:53:29;;;;;;;4.10;3.50;;;;;;;4.17;100.00;95571.91;5116476;28;20536;-61
2022/04/11 01:55:55;;;;;;;5.17;3.73;;;;;;;3.97;100.00;95572.31;5116297;28;20186;-60
2022/04/11 01:58:20;;;;;;;5.20;3.60;;;;;;;4.07;100.00;95569.03;5116028;28;20237;-60
2022/04/11 02:00:46;;;;;;;6.57;3.90;;;;;;;4.16;100.00;95564.16;5116212;28;20189;-59
2022/04/11 02:03:12;;;;;;;6.57;3.67;;;;;;;4.17;100.00;95576.53;5116205;28;20607;-60
2022/04/11 02:05:39;;;;;;;4.97;3.70;;;;;;;4.20;100.00;95573.91;5116125;28;20219;-60
2022/04/11 02:08:07;;;;;;;6.50;3.80;;;;;;;4.26;100.00;95569.75;5116027;28;20663;-59
2022/04/11 02:10:32;;;;;;;6.73;4.10;;;;;;;4.38;100.00;95566.13;5116028;28;20672;-60
2022/04/11 02:12:58;;;;;;;3.80;3.40;;;;;;;4.17;100.00;95563.03;5116230;28;20188;-59
2022/04/11 02:15:23;;;;;;;4.40;3.87;;;;;;;4.30;100.00;95564.44;5116140;28;20279;-59
2022/04/11 02:17:50;;;;;;;4.20;3.80;;;;;;;4.34;100.00;95559.88;5116164;28;20231;-59
2022/04/11 02:20:16;;;;;;;3.97;3.57;;;;;;;4.33;100.00;95558.31;5115841;28;20415;-59
2022/04/11 02:22:51;;;;;;;6.30;4.30;;;;;;;4.37;100.00;95545.66;5116032;28;20736;-60
2022/04/11 02:25:19;;;;;;;5.37;3.70;;;;;;;4.72;100.00;95544.31;5115848;28;20211;-59
2022/04/11 02:27:44;;;;;;;6.80;4.80;;;;;;;4.83;100.00;95539.88;5115757;28;20290;-60
2022/04/11 02:30:11;;;;;;;3.83;3.40;;;;;;;4.82;100.00;95537.50;5115619;28;20191;-62
2022/04/11 02:32:37;;;;;;;4.87;3.50;;;;;;;4.68;100.00;95538.06;5116015;28;20737;-62
2022/04/11 02:35:03;;;;;;;5.30;3.20;;;;;;;4.77;100.00;95540.53;5116289;28;20191;-61
2022/04/11 02:37:28;;;;;;;5.33;3.70;;;;;;;4.82;100.00;95545.63;5115411;28;20192;-62
2022/04/11 02:39:54;;;;;;;3.70;3.27;;;;;;;5.08;100.00;95545.66;5115213;28;20188;-62
2022/04/11 02:42:27;;;;;;;5.23;3.70;;;;;;;5.04;100.00;95534.00;5115534;28;20242;-61
2022/04/11 02:44:53;;;;;;;5.30;3.53;;;;;;;5.05;100.00;95540.97;5115528;28;20197;-61
2022/04/11 02:47:19;;;;;;;4.13;3.60;;;;;;;5.05;100.00;95538.25;5115415;28;20227;-60
2022/04/11 02:49:44;;;;;;;4.20;3.40;;;;;;;4.91;100.00;95540.75;5115476;28;20211;-57
2022/04/11 02:52:10;;;;;;;6.23;4.13;;;;;;;4.93;100.00;95544.66;5115261;28;20207;-58
2022/04/11 02:54:36;;;;;;;4.53;3.23;;;;;;;4.89;100.00;95543.03;5115307;28;20243;-58
2022/04/11 02:57:02;;;;;;;4.80;3.20;;;;;;;4.85;100.00;95529.44;5115296;28;20723;-58
2022/04/11 02:59:28;;;;;;;6.13;3.47;;;;;;;4.88;100.00;95528.72;5115000;28;20280;-57
2022/04/11 03:01:54;;;;;;;5.53;3.17;;;;;;;4.67;100.00;95530.31;5115292;28;20288;-56
2022/04/11 03:04:19;;;;;;;3.63;3.30;;;;;;;4.98;100.00;95527.31;5115051;28;20223;-61
2022/04/11 03:06:45;;;;;;;4.37;3.23;;;;;;;4.92;100.00;95526.09;5115151;28;20576;-57
2022/04/11 03:09:13;;;;;;;5.93;3.37;;;;;;;4.98;100.00;95528.09;5114935;28;20238;-57
2022/04/11 03:11:38;;;;;;;7.10;3.53;;;;;;;4.88;100.00;95531.44;5115017;28;20673;-57
2022/04/11 03:14:03;;;;;;;4.97;3.10;;;;;;;4.76;100.00;95525.44;5115133;28;20313;-58
2022/04/11 03:16:29;;;;;;;4.47;3.30;;;;;;;4.54;100.00;95529.72;5115263;28;20207;-57
2022/04/11 03:18:54;;;;;;;4.47;3.30;;;;;;;4.58;100.00;95527.84;5115418;28;20591;-57
2022/04/11 03:21:19;;;;;;;4.27;3.77;;;;;;;4.71;100.00;95529.25;5114898;28;20220;-58
2022/04/11 03:23:45;;;;;;;6.23;3.67;;;;;;;4.71;100.00;95531.94;5115025;28;20555;-58
2022/04/11 03:26:11;;;;;;;4.23;3.37;;;;;;;4.64;100.00;95531.03;5114907;28;20210;-57
2022/04/11 03:28:36;;;;;;;4.63;3.37;;;;;;;4.60;100.00;95530.19;5114845;28;20190;-56
2022/04/11 03:31:02;;;;;;;7.20;3.30;;;;;;;4.40;100.00;95520.59;5114804;28;20257;-57
2022/04/11 03:33:27;;;;;;;4.67;3.03;;;;;;;4.22;100.00;95522.22;5114686;28;20221;-57
2022/04/11 03:35:52;;;;;;;5.37;3.10;;;;;;;4.22;100.00;95520.28;5114573;28;20199;-57
2022/04/11 03:38:18;;;;;;;4.37;3.00;;;;;;;4.30;100.00;95515.78;5114622;28;20180;-53
2022/04/11 03:40:43;;;;;;;6.10;3.20;;;;;;;4.27;100.00;95519.22;5115074;28;20231;-61
2022/04/11 03:43:09;;;;;;;4.63;2.90;;;;;;;4.29;100.00;95516.94;5114604;28;20187;-55
2022/04/11 03:45:34;;;;;;;3.13;2.70;;;;;;;4.09;100.00;95516.19;5114756;28;20185;-57
2022/04/11 03:48:00;;;;;;;4.77;2.73;;;;;;;4.14;100.00;95512.41;5114809;28;20249;-57
2022/04/11 03:50:25;;;;;;;3.60;2.70;;;;;;;4.13;100.00;95516.25;5114575;28;20185;-54
2022/04/11 03:52:50;;;;;;;6.30;3.57;;;;;;;4.20;100.00;95517.16;5114841;28;20219;-57
2022/04/11 03:55:16;;;;;;;5.10;2.90;;;;;;;4.16;100.00;95516.31;5114744;28;20184;-56
2022/04/11 03:57:42;;;;;;;3.27;2.73;;;;;;;4.30;100.00;95510.38;5115289;28;20212;-57
2022/04/11 04:00:08;;;;;;;4.63;3.13;;;;;;;4.23;100.00;95515.66;5118476;28;20182;-58
2022/04/11 04:02:33;;;;;;;4.40;3.00;;;;;;;3.89;100.00;95503.84;5118044;28;20395;-59
2022/04/11 04:04:58;;;;;;;2.97;2.53;;;;;;;3.87;100.00;95502.66;5117959;28;20449;-59
2022/04/11 04:07:24;;;;;;;4.77;2.83;;;;;;;3.95;100.00;95496.22;5117938;28;20263;-59
2022/04/11 04:09:49;;;;;;;3.67;2.83;;;;;;;3.87;100.00;95494.53;5117817;28;20183;-59
2022/04/11 04:12:22;;;;;;;4.33;2.63;;;;;;;3.88;100.00;95493.41;5117986;28;20291;-59
2022/04/11 04:14:48;;;;;;;4.07;2.73;;;;;;;3.91;100.00;95492.69;5117850;28;20558;-59
2022/04/11 04:17:13;;;;;;;3.83;2.90;;;;;;;3.92;100.00;95488.84;5117792;28;20190;-60
2022/04/11 04:19:39;;;;;;;3.93;2.57;;;;;;;3.85;100.00;95488.72;5117517;28;20191;-60
2022/04/11 04:22:05;;;;;;;2.93;2.40;;;;;;;3.78;100.00;95483.19;5117702;28;20184;-62
2022/04/11 04:24:36;;;;;;;3.83;2.80;;;;;;;4.01;100.00;95478.59;5117607;27;20550;-62
2022/04/11 04:27:02;;;;;;;4.90;2.47;;;;;;;4.08;100.00;95484.13;5117937;28;20180;-62
2022/04/11 04:29:28;;;;;;;4.07;2.50;;;;;;;3.91;100.00;95477.28;5117500;28;20641;-61
2022/04/11 04:31:54;;;;;;;3.93;2.90;;;;;;;3.89;100.00;95470.69;5117295;28;20219;-62
2022/04/11 04:34:20;;;;;;;6.33;3.00;;;;;;;3.77;100.00;95470.81;5117247;28;20185;-61
2022/04/11 04:36:46;;;;;;;3.63;2.60;;;;;;;3.85;100.00;95473.28;5117571;28;20185;-58
2022/04/11 04:39:11;;;;;;;3.83;2.87;;;;;;;4.01;100.00;95467.81;5117038;28;20190;-58
2022/04/11 04:41:37;;;;;;;4.07;2.60;;;;;;;4.13;100.00;95467.63;5117365;28;20297;-57
2022/04/11 04:44:04;;;;;;;4.27;2.90;;;;;;;4.57;100.00;95466.81;5117178;28;20638;-58
2022/04/11 04:46:29;;;;;;;3.50;2.67;;;;;;;4.83;100.00;95474.16;5116901;28;20195;-57
2022/04/11 04:48:56;;;;;;;3.63;3.07;;;;;;;5.22;100.00;95470.06;5117677;28;20280;-57
2022/04/11 04:51:21;;;;;;;3.83;2.80;;;;;;;5.27;100.00;95477.88;5117261;28;20216;-56
2022/04/11 04:53:46;;;;;;;4.67;3.20;;;;;;;5.16;100.00;95476.94;5117157;28;20183;-61
2022/04/11 04:56:12;;;;;;;5.77;2.93;;;;;;;5.33;100.00;95471.00;5117124;28;20262;-60
2022/04/11 04:58:37;;;;;;;3.83;3.10;;;;;;;5.55;100.00;95479.03;5117188;28;20216;-56
2022/04/11 05:01:02;;;;;;;6.50;3.20;;;;;;;5.50;100.00;95476.63;5117071;28;20634;-57
2022/04/11 05:03:28;;;;;;;5.93;3.27;;;;;;;5.09;100.00;95474.13;5116822;28;20428;-57
2022/04/11 05:05:54;;;;;;;6.40;3.60;;;;;;;5.09;100.00;95471.44;5117096;28;20277;-56
2022/04/11 05:08:20;;;;;;;5.63;3.30;;;;;;;5.39;100.00;95470.28;5116855;27;20251;-56
2022/04/11 05:10:45;;;;;;;5.40;2.97;;;;;;;5.46;100.00;95475.03;5116969;28;20210;-57
2022/04/11 05:13:10;;;;;;;4.87;3.20;;;;;;;5.59;100.00;95476.34;5117145;28;20230;-59
2022/04/11 05:15:35;;;;;;;4.50;2.87;;;;;;;5.59;100.00;95479.03;5116887;28;20663;-56
2022/04/11 05:18:01;;;;;;;5.67;3.00;;;;;;;5.52;100.00;95474.34;5116662;28;20257;-54
2022/04/11 05:20:26;;;;;;;4.80;3.10;;;;;;;5.74;100.00;95475.34;5116779;28;20228;-55
2022/04/11 05:22:51;;;;;;;6.70;3.30;;;;;;;5.99;100.00;95471.81;5116667;28;20179;-52
2022/04/11 05:25:17;;;;;;;4.97;3.23;;;;;;;6.41;100.00;95466.00;5116336;28;20301;-51
2022/04/11 05:27:42;;;;;;;3.77;3.10;;;;;;;6.52;100.00;95456.03;5116343;28;20179;-51
2022/04/11 05:30:08;;;;;;;6.73;3.30;;;;;;;6.57;100.00;95453.75;5116696;28;20176;-52
2022/04/11 05:32:33;;;;;;;4.10;3.00;;;;;;;6.59;100.00;95461.50;5116398;28;20221;-51
2022/04/11 05:34:59;;;;;;;5.33;3.27;;;;;;;6.91;100.00;95467.94;5116683;28;20239;-58
2022/04/11 05:37:25;;;;;;;6.97;3.30;;;;;;;6.82;100.00;95454.69;5116123;28;20183;-58
2022/04/11 05:39:50;;;;;;;5.97;3.10;;;;;;;7.26;100.00;95468.16;5116330;28;20179;-55
2022/04/11 05:42:15;;;;;;;4.83;3.30;;;;;;;7.51;100.00;95463.66;5116416;28;20561;-56
2022/04/11 05:44:41;;;;;;;3.97;3.10;;;;;;;7.68;100.00;95475.75;5116474;28;20237;-57
2022/04/11 05:47:06;;;;;;;4.57;3.33;;;;;;;8.01;100.00;95465.34;5116203;28;20184;-57
2022/04/11 05:49:32;;;;;;;3.73;3.10;;;;;;;7.96;100.00;95468.47;5116411;28;20191;-53
2022/04/11 05:51:57;;;;;;;3.07;2.77;;;;;;;7.90;100.00;95480.84;5116171;28;20203;-61
2022/04/11 05:54:22;;;;;;;4.33;3.43;;;;;;;7.89;100.00;95479.31;5116399;28;20241;-52
2022/04/11 05:56:48;;;;;;;5.43;3.40;;;;;;;8.03;100.00;95484.78;5116258;28;20223;-53
2022/04/11 05:59:13;;;;;;;4.93;3.80;;;;;;;7.87;100.00;95481.63;5116141;28;20279;-53
2022/04/11 06:01:40;;;;;;;3.93;3.07;;;;;;;7.58;100.00;95482.66;5116105;28;20211;-56
2022/04/11 06:04:06;;;;;;;4.57;3.47;;;;;;;7.58;100.00;95479.94;5116392;28;20190;-54
2022/04/11 06:06:31;;;;;;;6.27;3.37;;;;;;;7.94;100.00;95476.22;5115935;28;20183;-55
2022/04/11 06:08:57;;;;;;;5.03;3.07;;;;;;;7.76;100.00;95480.81;5115954;28;20191;-61
2022/04/11 06:11:22;;;;;;;3.60;3.20;;;;;;;7.28;100.00;95487.56;5115655;28;20252;-61
2022/04/11 06:13:47;;;;;;;3.80;3.13;;;;;;;7.74;100.00;95490.50;5115687;28;20202;-61
2022/04/11 06:16:13;;;;;;;3.10;2.77;;;;;;;7.23;100.00;95496.06;5115945;28;20179;-59
2022/04/11 06:18:38;;;;;;;4.67;3.90;;;;;;;8.07;100.00;95484.78;5116257;28;20319;-60
2022/04/11 06:21:04;;;;;;;5.50;3.57;;;;;;;8.24;100.00;95484.88;5115119;28;20198;-61
2022/04/11 06:23:29;;;;;;;4.00;3.57;;;;;;;9.02;100.00;95481.03;5115730;28;20219;-60
2022/04/11 06:25:54;;;;;;;3.77;3.10;;;;;;;9.61;100.00;95493.75;5115391;28;20252;-61
2022/04/11 06:28:20;;;;;;;3.53;3.20;;;;;;;9.36;98.38;95503.94;5115884;28;20188;-59
2022/04/11 06:30:45;;;;;;;4.40;3.27;;;;;;;9.55;94.68;95492.59;5115262;28;20186;-59
2022/04/11 06:33:10;;;;;;;3.97;3.37;;;;;;;9.12;93.31;95499.31;5115367;28;20181;-59
2022/04/11 06:35:36;;;;;;;3.80;3.40;;;;;;;9.12;97.22;95502.03;5115666;28;20205;-60
2022/04/11 06:38:01;;;;;;;3.53;3.20;;;;;;;9.39;95.49;95499.66;5115292;28;20180;-61
2022/04/11 06:40:26;;;;;;;5.90;3.43;;;;;;;10.04;93.48;95505.28;5115544;28;20178;-60
2022/04/11 06:42:52;;;;;;;5.93;3.47;;;;;;;10.20;87.71;95504.84;5115704;28;20617;-61
2022/04/11 06:45:17;;;;;;;3.67;3.13;;;;;;;11.29;85.26;95493.94;5115076;28;20184;-54
2022/04/11 06:47:44;;;;;;;4.10;3.23;;;;;;;12.88;80.21;95505.25;5116081;28;20687;-58
2022/04/11 06:50:10;;;;;;;4.33;3.03;;;;;;;13.10;69.23;95506.50;5115853;28;20272;-57
2022/04/11 06:52:35;;;;;;;5.53;3.57;;;;;;;14.15;71.00;95501.84;5114973;28;20300;-57
2022/04/11 06:55:00;;;;;;;4.53;3.10;;;;;;;12.87;62.87;95509.19;5115247;28;20198;-57
2022/04/11 06:57:26;;;;;;;3.77;2.90;;;;;;;13.64;64.93;95507.16;5115207;28;20179;-57
2022/04/11 06:59:51;;;;;;;5.83;3.20;;;;;;;12.95;64.60;95505.16;5115225;28;20567;-57
2022/04/11 07:02:17;;;;;;;3.90;3.50;;;;;;;12.42;66.29;95499.69;5115099;28;20186;-57
2022/04/11 07:04:42;;;;;;;6.27;3.20;;;;;;;12.63;65.17;95491.16;5114975;28;20187;-57
2022/04/11 07:07:08;;;;;;;3.83;2.80;;;;;;;13.30;62.63;95504.63;5115118;28;20186;-59
2022/04/11 07:09:33;;;;;;;4.83;3.23;;;;;;;13.14;59.20;95502.53;5114860;28;20187;-60
2022/04/11 07:11:58;;;;;;;4.93;3.10;;;;;;;13.09;61.70;95497.53;5115238;28;20209;-60
2022/04/11 07:14:25;;;;;;;3.13;2.83;;;;;;;13.25;58.20;95497.63;5114726;28;20182;-59
2022/04/11 07:16:52;;;;;;;3.60;2.70;;;;;;;15.40;52.52;95505.72;5114787;28;20507;-60
2022/04/11 07:19:17;;;;;;;3.90;2.70;;;;;;;16.72;48.43;95493.44;5114454;28;20657;-59
2022/04/11 07:21:45;;;;;;;3.37;3.07;;;;;;;17.66;43.38;95495.16;5114727;28;20188;-60
2022/04/11 07:24:10;;;;;;;3.40;2.83;;;;;;;18.78;40.52;95491.06;5114663;28;20311;-63
2022/04/11 07:26:36;;;;;;;3.43;2.87;;;;;;;19.69;39.33;95495.72;5114632;28;20262;-57
2022/04/11 07:29:01;;;;;;;5.90;3.30;;;;;;;19.48;39.00;95490.31;5114651;28;20214;-58
2022/04/11 07:31:27;;;;;;;3.37;2.67;;;;;;;18.89;39.74;95486.69;5114681;27;20195;-58
2022/04/11 07:33:52;;;;;;;3.23;2.77;;;;;;;18.20;39.67;95479.00;5117404;28;20182;-58
2022/04/11 07:36:18;;;;;;;3.20;2.90;;;;;;;18.71;39.92;95494.13;5118294;28;20265;-58
2022/04/11 07:38:43;;;;;;;3.30;2.80;;;;;;;19.69;39.14;95489.41;5118056;28;20228;-58
2022/04/11 07:41:09;;;;;;;9.07;3.53;;;;;;;21.81;34.31;95480.78;5118183;28;20266;-61
2022/04/11 07:43:34;;;;;;;7.57;3.50;;;;;;;21.72;34.15;95482.84;5118073;28;20186;-60
2022/04/11 07:46:01;;;;;;;4.03;3.10;;;;;;;21.22;33.75;95490.03;5118394;28;20190;-61
2022/04/11 07:48:26;;;;;;;3.20;2.90;;;;;;;20.47;34.23;95491.13;5118187;28;20179;-60
2022/04/11 07:50:51;;;;;;;8.37;3.30;;;;;;;20.67;33.30;95488.66;5118516;28;20214;-60
2022/04/11 07:53:17;;;;;;;7.40;3.47;;;;;;;21.47;33.05;95489.59;5118118;28;20179;-60
2022/04/11 07:55:44;;;;;;;8.63;3.53;;;;;;;21.31;33.31;95487.19;5117748;28;20183;-60
2022/04/11 07:58:09;;;;;;;3.50;2.90;;;;;;;20.29;33.42;95496.72;5117976;28;20187;-59
2022/04/11 08:00:34;;;;;;;4.07;3.27;;;;;;;19.72;35.31;95503.13;5117866;28;20179;-61
2022/04/11 08:03:00;;;;;;;5.70;3.27;;;;;;;20.32;35.64;95498.56;5136139;28;20179;-60
2022/04/11 08:05:26;;;;;;;3.87;2.90;;;;;;;18.45;38.10;95501.03;5117714;28;20180;-60
2022/04/11 08:07:51;;;;;;;5.23;3.30;;;;;;;17.51;38.87;95499.59;5117763;28;20176;-60
2022/04/11 08:10:17;;;;;;;4.10;3.70;;;;;;;18.80;37.92;95505.25;5117777;28;20183;-61
2022/04/11 08:12:54;;;;;;;4.47;3.30;;;;;;;18.39;37.98;95502.84;5117497;28;20206;-60
2022/04/11 08:15:20;;;;;;;3.40;2.90;;;;;;;17.49;39.50;95496.50;5117427;28;20639;-60
2022/04/11 08:17:46;;;;;;;3.73;3.13;;;;;;;16.06;41.74;95503.19;5117631;28;20175;-60
2022/04/11 08:20:11;;;;;;;4.83;3.33;;;;;;;15.12;43.65;95506.38;5117820;28;20186;-59
2022/04/11 08:22:36;;;;;;;3.70;3.30;;;;;;;16.78;42.78;95497.22;5117592;28;20219;-60
2022/04/11 08:25:02;;;;;;;4.20;3.00;;;;;;;15.36;43.42;95504.25;5117602;28;20572;-60
2022/04/11 08:27:27;;;;;;;4.00;3.37;;;;;;;15.17;44.79;95502.34;5117167;28;20190;-59
2022/04/11 08:29:53;;;;;;;4.33;3.60;;;;;;;17.80;41.19;95489.13;5117287;28;20223;-60
2022/04/11 08:32:18;;;;;;;3.40;3.10;;;;;;;18.15;39.52;95499.72;5117264;28;20560;-59
2022/04/11 08:34:44;;;;;;;3.37;3.07;;;;;;;17.33;40.80;95494.63;5117376;28;20179;-63
2022/04/11 08:37:09;;;;;;;5.10;3.30;;;;;;;18.12;38.73;95489.56;5117178;28;20183;-59
2022/04/11 08:39:34;;;;;;;3.40;3.10;;;;;;;17.96;39.93;95486.22;5117357;28;20179;-61
2022/04/11 08:42:01;;;;;;;3.57;2.60;;;;;;;18.70;36.81;95492.59;5117350;28;20239;-61
2022/04/11 08:44:27;;;;;;;3.37;2.90;;;;;;;18.24;36.31;95485.97;5116737;28;20208;-61
2022/04/11 08:46:57;;;;;;;3.17;2.80;;;;;;;18.87;34.38;95466.22;5117420;28;20189;-61
2022/04/11 08:49:23;;;;;;;3.60;2.73;;;;;;;18.69;34.72;95482.75;5116775;28;20187;-64
2022/04/11 08:51:48;;;;;;;3.27;2.67;;;;;;;18.21;35.80;95480.56;5135375;28;20195;-62
2022/04/11 08:54:15;;;;;;;3.50;2.80;;;;;;;18.16;35.35;95467.31;5117299;28;20482;-58
2022/04/11 08:56:40;;;;;;;2.90;2.57;;;;;;;19.68;34.30;95469.25;5117269;28;20186;-60
2022/04/11 08:59:05;;;;;;;3.00;2.70;;;;;;;19.38;34.30;95467.34;5135389;28;20183;-60
2022/04/11 09:01:33;;;;;;;2.73;2.37;;;;;;;18.19;35.36;95467.19;5117196;28;20261;-60
2022/04/11 09:03:58;;;;;;;3.60;2.70;;;;;;;19.46;34.30;95463.06;5116776;28;20179;-61
2022/04/11 09:06:24;;;;;;;4.00;2.80;;;;;;;18.64;35.20;95472.25;5116734;28;20191;-60
2022/04/11 09:08:58;;;;;;;4.07;2.80;;;;;;;19.66;33.94;95466.16;5116904;28;20191;-59
2022/04/11 09:11:34;;;;;;;6.00;2.93;;;;;;;18.70;34.57;95473.22;5116539;28;20198;-59
2022/04/11 09:14:01;;;;;;;3.00;2.70;;;;;;;19.31;33.93;95456.56;5116904;28;20202;-58
2022/04/11 09:16:28;;;;;;;3.33;2.70;;;;;;;19.44;33.63;95466.28;5116688;28;20187;-59
2022/04/11 09:18:55;;;;;;;4.00;3.47;;;;;;;19.85;34.20;95453.84;5117004;28;20218;-58
2022/04/11 09:21:23;;;;;;;3.93;2.50;;;;;;;19.02;34.11;95461.69;5116842;28;20191;-58
2022/04/11 09:23:49;;;;;;;3.27;2.40;;;;;;;20.51;31.87;95452.94;5116498;28;20194;-57
2022/04/11 09:26:24;;;;;;;2.70;2.40;;;;;;;20.23;31.94;95459.75;5116313;28;20255;-57
2022/04/11 09:29:00;;;;;;;3.30;2.50;;;;;;;20.32;32.65;95445.09;5116704;28;20182;-58
2022/04/11 09:31:26;;;;;;;2.90;2.60;;;;;;;20.34;32.34;95437.06;5116248;28;20210;-60
2022/04/11 09:33:52;;;;;;;3.27;2.97;;;;;;;22.39;30.54;95436.41;5116457;28;20195;-58
2022/04/11 09:36:20;;;;;;;2.73;2.53;;;;;;;22.48;30.28;95447.47;5116457;28;20198;-58
2022/04/11 09:38:57;;;;;;;3.10;2.80;;;;;;;21.41;31.28;95449.78;5116433;28;20175;-57
2022/04/11 09:41:27;;;;;;;2.83;2.40;;;;;;;22.20;30.00;95457.28;5116335;28;20254;-60
2022/04/11 09:43:52;;;;;;;3.03;2.43;;;;;;;21.54;31.06;95444.78;5116436;28;20183;-58
2022/04/11 09:46:18;;;;;;;2.97;2.50;;;;;;;21.74;29.79;95453.31;5116378;28;20183;-58
2022/04/11 09:48:44;;;;;;;3.67;2.40;;;;;;;22.64;28.19;95451.78;5116265;28;20195;-60
2022/04/11 09:51:13;;;;;;;2.50;2.30;;;;;;;21.76;29.37;95445.28;5134445;28;20203;-59
2022/04/11 09:53:39;;;;;;;3.97;2.50;;;;;;;21.71;29.21;95443.13;5116110;28;20198;-58
2022/04/11 09:56:06;;;;;;;2.60;2.20;;;;;;;20.64;29.68;95445.16;5114866;28;20187;-58
2022/04/11 09:58:37;;;;;;;2.60;2.40;;;;;;;19.94;31.20;95453.88;5134245;28;20180;-58
2022/04/11 10:01:04;;;;;;;4.00;2.50;;;;;;;19.01;32.42;95471.19;5115814;28;20183;-58
2022/04/11 10:03:30;;;;;;;2.67;2.47;;;;;;;20.79;30.83;95446.03;5115825;28;20236;-58
2022/04/11 10:05:57;;;;;;;2.50;2.30;;;;;;;21.99;29.28;95441.69;5116242;28;20212;-57
2022/04/11 10:08:27;;;;;;;4.13;2.33;;;;;;;21.89;29.43;95431.13;5116285;28;20274;-58
2022/04/11 10:10:56;;;;;;;4.10;2.33;;;;;;;20.17;30.42;95439.41;5115635;28;20179;-61
2022/04/11 10:13:22;;;;;;;3.83;2.63;;;;;;;20.27;31.20;95432.59;5116030;28;20269;-61
2022/04/11 10:15:51;;;;;;;4.17;2.90;;;;;;;20.75;31.53;95439.88;5115687;28;20270;-60
2022/04/11 10:18:25;;;;;;;3.60;2.60;;;;;;;20.84;31.00;95420.44;5115600;28;20179;-61
2022/04/11 10:20:56;;;;;;;4.07;2.60;;;;;;;20.12;31.67;95428.94;5115450;28;20183;-61
2022/04/11 10:23:55;;;;;;;3.53;2.50;;;;;;;22.18;29.94;95415.25;5115424;28;20632;-61
2022/04/11 10:26:21;;;;;;;4.17;2.30;;;;;;;23.12;28.84;95421.69;5115403;28;20232;-58
2022/04/11 10:28:48;;;;;;;2.80;2.60;;;;;;;21.71;29.57;95426.47;5115661;28;20204;-59
2022/04/11 10:31:15;;;;;;;3.37;2.43;;;;;;;21.39;30.19;95416.16;5115555;28;20217;-60
2022/04/11 10:33:52;;;;;;;4.43;2.97;;;;;;;21.31;30.28;95426.06;5115547;28;20195;-60
2022/04/11 10:36:32;;;;;;;2.97;2.63;;;;;;;21.55;30.70;95410.19;5115345;28;20183;-58
2022/04/11 10:39:16;;;;;;;3.07;2.57;;;;;;;20.79;31.88;95407.16;5115500;28;20187;-58
2022/04/11 10:41:54;;;;;;;3.27;2.73;;;;;;;20.81;32.13;95415.03;5115736;28;20217;-59
2022/04/11 10:44:40;;;;;;;3.10;2.90;;;;;;;19.79;33.48;95413.34;5115480;28;20201;-61
2022/04/11 10:47:11;;;;;;;3.97;2.60;;;;;;;19.63;32.18;95410.91;5115004;28;20191;-58
2022/04/11 10:49:49;;;;;;;3.67;2.83;;;;;;;20.88;30.80;95398.81;5115397;28;20186;-58
2022/04/11 10:52:35;;;;;;;2.60;2.40;;;;;;;21.45;31.10;95396.84;5115353;28;20207;-58
2022/04/11 10:55:11;;;;;;;2.47;2.27;;;;;;;22.22;28.98;95390.78;5114836;28;20190;-58
2022/04/11 10:57:41;;;;;;;2.50;2.30;;;;;;;23.14;28.02;95394.09;5115299;28;20198;-58
2022/04/11 11:00:15;;;;;;;3.30;2.20;;;;;;;24.57;26.78;95379.09;5115367;28;20191;-59
2022/04/11 11:02:53;;;;;;;2.60;2.00;;;;;;;24.33;26.51;95376.56;5114909;28;20195;-60
2022/04/11 11:05:28;;;;;;;2.77;2.30;;;;;;;23.48;26.60;95376.59;5114938;28;20290;-59
2022/04/11 11:08:24;;;;;;;2.50;2.30;;;;;;;24.18;26.32;95377.97;5114650;28;20218;-58
2022/04/11 11:11:23;;;;;;;3.20;2.23;;;;;;;23.04;27.07;95373.16;5093451;28;20232;-58
2022/04/11 11:13:50;;;;;;;4.20;2.53;;;;;;;23.23;26.44;95374.50;5060949;28;20210;-58
2022/04/11 11:16:15;;;;;;;2.50;2.30;;;;;;;22.05;27.81;95373.03;5115110;28;20675;-57
2022/04/11 11:18:53;;;;;;;4.63;2.37;;;;;;;23.33;27.32;95364.72;5114818;28;20194;-58
2022/04/11 11:21:22;;;;;;;3.10;2.33;;;;;;;20.16;29.60;95364.97;5114923;28;20220;-60
2022/04/11 11:24:10;;;;;;;2.67;2.30;;;;;;;19.37;32.23;95355.00;5114897;28;20183;-59
2022/04/11 11:26:46;;;;;;;2.60;2.40;;;;;;;19.81;31.86;95356.22;5114547;28;20213;-58
2022/04/11 11:29:16;;;;;;;2.63;2.43;;;;;;;19.13;33.14;95352.00;5115004;28;20190;-58
2022/04/11 11:31:43;;;;;;;3.40;2.30;;;;;;;18.12;34.20;95356.09;5114599;28;20232;-59
2022/04/11 11:34:13;;;;;;;2.63;2.40;;;;;;;17.41;35.26;95352.38;5114860;28;20187;-58